Time;durP1;ratioP1;P1;durP2;ratioP2;P2;SDS_P1;SDS_P2;PMS_P1;PMS_P2;Temp;Humidity;BMP_temperature;BMP_pressure;BME280_temperature;BME280_humidity;BME280_pressure;Samples;Min_cycle;Max_cycle;Signal;HPM_P1;HPM_P2
2022/05/20 00:00:47;;;;;;;8.05;2.75;;;;;;;;;;5108217;28;20051;-61
2022/05/20 00:03:14;;;;;;;6.15;2.78;;;;;;;;;;5103015;28;20062;-61
2022/05/20 00:05:40;;;;;;;9.70;3.22;;;;;;;;;;5108809;28;20138;-61
2022/05/20 00:08:08;;;;;;;5.15;2.42;;;;;;;;;;5102960;28;20051;-61
2022/05/20 00:10:36;;;;;;;5.45;2.75;;;;;;;;;;5107551;28;20108;-62
2022/05/20 00:13:03;;;;;;;;;;;;;;;;;;5102577;28;20122;-61
2022/05/20 00:15:30;;;;;;;7.80;2.45;;;;;;;;;;5108712;28;19924;-62
2022/05/20 00:17:56;;;;;;;6.57;3.00;;;;;;;;;;5102916;28;20116;-62
2022/05/20 00:20:23;;;;;;;5.53;2.58;;;;;;;;;;5109848;27;20088;-61
2022/05/20 00:22:50;;;;;;;6.50;2.70;;;;;;;;;;5103094;28;20069;-62
2022/05/20 00:28:04;;;;;;;5.22;2.67;;;;;;;;;;5093341;28;20098;-61
2022/05/20 00:30:30;;;;;;;5.40;2.70;;;;;;;;;;5107509;28;20100;-62
2022/05/20 00:32:57;;;;;;;6.25;2.60;;;;;;;;;;5108887;28;20048;-63
2022/05/20 00:35:24;;;;;;;15.65;4.57;;;;;;;;;;5102514;28;20051;-61
2022/05/20 00:37:50;;;;;;;6.07;3.28;;;;;;;;;;5108087;28;20067;-62
2022/05/20 00:40:19;;;;;;;6.53;2.72;;;;;;;;;;5101625;28;20047;-62
2022/05/20 00:42:45;;;;;;;5.38;2.33;;;;;;;;;;5109228;28;20083;-62
2022/05/20 00:45:13;;;;;;;6.10;2.92;;;;;;;;;;5101509;28;20072;-61
2022/05/20 00:47:40;;;;;;;6.53;2.95;;;;;;;;;;5108628;28;20048;-61
2022/05/20 00:50:09;;;;;;;7.80;2.85;;;;;;;;;;5101601;28;20083;-61
2022/05/20 00:52:37;;;;;;;6.30;2.83;;;;;;;;;;5108220;28;20051;-62
2022/05/20 00:55:06;;;;;;;7.07;3.40;;;;;;;;;;5102483;28;20059;-61
2022/05/20 00:57:35;;;;;;;5.95;3.10;;;;;;;;;;5108091;28;20233;-62
2022/05/20 01:00:04;;;;;;;6.97;2.90;;;;;;;;;;5102277;28;20058;-61
2022/05/20 01:02:34;;;;;;;7.80;2.85;;;;;;;;;;5108474;28;20121;-61
2022/05/20 01:05:03;;;;;;;6.63;2.72;;;;;;;;;;5101565;28;20051;-62
2022/05/20 01:07:29;;;;;;;;;;;;;;;;;;5110369;28;20078;-62
2022/05/20 01:09:56;;;;;;;6.25;2.70;;;;;;;;;;5103444;28;19961;-61
2022/05/20 01:12:24;;;;;;;7.75;3.10;;;;;;;;;;5107647;28;20044;-62
2022/05/20 01:14:51;;;;;;;6.10;2.85;;;;;;;;;;5103254;28;20052;-62
2022/05/20 01:17:18;;;;;;;5.35;2.90;;;;;;;;;;5107469;28;20051;-62
2022/05/20 01:19:47;;;;;;;7.25;3.00;;;;;;;;;;5107721;28;20048;-61
2022/05/20 01:22:14;;;;;;;8.15;2.88;;;;;;;;;;5101302;28;20067;-62
2022/05/20 01:24:42;;;;;;;9.85;3.22;;;;;;;;;;5107264;28;20114;-62
2022/05/20 01:27:09;;;;;;;8.03;3.13;;;;;;;;;;5100709;28;20125;-62
2022/05/20 01:29:36;;;;;;;6.80;3.25;;;;;;;;;;5107688;28;20347;-62
2022/05/20 01:32:02;;;;;;;8.10;3.25;;;;;;;;;;5101227;28;20062;-62
2022/05/20 01:34:29;;;;;;;6.65;3.25;;;;;;;;;;5107229;28;20067;-61
2022/05/20 01:36:56;;;;;;;8.90;3.40;;;;;;;;;;5101587;28;20059;-62
2022/05/20 01:39:22;;;;;;;8.82;3.33;;;;;;;;;;5106931;28;20162;-62
2022/05/20 01:41:54;;;;;;;9.35;2.83;;;;;;;;;;5101296;28;20062;-62
2022/05/20 01:44:24;;;;;;;7.72;3.58;;;;;;;;;;5107158;28;20051;-62
2022/05/20 01:46:53;;;;;;;8.32;3.13;;;;;;;;;;5101174;28;20042;-61
2022/05/20 01:49:24;;;;;;;7.65;3.38;;;;;;;;;;5106596;28;20054;-62
2022/05/20 01:51:52;;;;;;;4.85;2.78;;;;;;;;;;5101781;28;20047;-62
2022/05/20 01:54:22;;;;;;;6.47;3.28;;;;;;;;;;5106806;28;20119;-62
2022/05/20 01:56:51;;;;;;;7.47;3.50;;;;;;;;;;5101492;28;20062;-62
2022/05/20 01:59:21;;;;;;;7.10;3.40;;;;;;;;;;5106162;28;20071;-61
2022/05/20 02:01:51;;;;;;;6.85;2.90;;;;;;;;;;5084226;28;20061;-62
2022/05/20 02:04:21;;;;;;;8.77;3.50;;;;;;;;;;5106832;28;20055;-62
2022/05/20 02:06:51;;;;;;;7.80;3.22;;;;;;;;;;5104949;28;20051;-61
2022/05/20 02:09:21;;;;;;;6.57;3.30;;;;;;;;;;5119656;28;20148;-62
2022/05/20 02:11:48;;;;;;;8.95;3.40;;;;;;;;;;5086780;28;20059;-62
2022/05/20 02:14:16;;;;;;;7.00;3.28;;;;;;;;;;5099775;28;20132;-62
2022/05/20 02:16:47;;;;;;;6.05;3.00;;;;;;;;;;5106674;28;20056;-62
2022/05/20 02:19:16;;;;;;;8.05;3.20;;;;;;;;;;5100672;28;20051;-61
2022/05/20 02:21:45;;;;;;;7.05;3.10;;;;;;;;;;5109790;28;20055;-61
2022/05/20 02:24:15;;;;;;;6.50;3.45;;;;;;;;;;5105515;28;20043;-61
2022/05/20 02:26:45;;;;;;;5.30;2.92;;;;;;;;;;5111015;28;20051;-61
2022/05/20 02:29:14;;;;;;;7.25;3.53;;;;;;;;;;5104266;28;20146;-61
2022/05/20 02:31:43;;;;;;;7.15;3.47;;;;;;;;;;5110918;28;20059;-61
2022/05/20 02:34:09;;;;;;;;;;;;;;;;;;5105436;28;20047;-61
2022/05/20 02:36:37;;;;;;;6.50;3.63;;;;;;;;;;5112117;28;19944;-61
2022/05/20 02:39:06;;;;;;;6.90;3.50;;;;;;;;;;5104516;28;20055;-61
2022/05/20 02:41:33;;;;;;;8.68;3.38;;;;;;;;;;5110708;28;20055;-62
2022/05/20 02:44:00;;;;;;;5.70;3.15;;;;;;;;;;5106439;28;20067;-62
2022/05/20 02:46:27;;;;;;;8.40;3.38;;;;;;;;;;5110606;28;20055;-62
2022/05/20 02:48:53;;;;;;;7.10;3.15;;;;;;;;;;5104904;28;20043;-62
2022/05/20 02:51:20;;;;;;;5.70;3.17;;;;;;;;;;5108960;28;20054;-61
2022/05/20 02:53:48;;;;;;;5.85;3.17;;;;;;;;;;5105024;28;20071;-62
2022/05/20 02:56:14;;;;;;;6.60;3.20;;;;;;;;;;5110306;28;20100;-62
2022/05/20 03:04:11;;;;;;;8.80;3.95;;;;;;;;;;5103697;28;20059;-61
2022/05/20 03:06:38;;;;;;;5.85;3.15;;;;;;;;;;5110007;28;20068;-61
2022/05/20 03:09:07;;;;;;;9.13;4.35;;;;;;;;;;5109565;28;20059;-62
2022/05/20 03:11:34;;;;;;;8.23;3.80;;;;;;;;;;5103795;28;20112;-61
2022/05/20 03:14:01;;;;;;;7.30;3.65;;;;;;;;;;5109489;28;20075;-61
2022/05/20 03:16:27;;;;;;;7.45;3.47;;;;;;;;;;5103824;28;20052;-61
2022/05/20 03:18:54;;;;;;;7.55;3.53;;;;;;;;;;5109601;28;20134;-62
2022/05/20 03:21:20;;;;;;;6.75;3.83;;;;;;;;;;5104027;28;20127;-61
2022/05/20 03:23:47;;;;;;;7.75;3.92;;;;;;;;;;5109382;28;20051;-61
2022/05/20 03:26:15;;;;;;;6.57;3.40;;;;;;;;;;5103780;28;20054;-60
2022/05/20 03:28:42;;;;;;;;;;;;;;;;;;5109421;28;20044;-61
2022/05/20 03:31:10;;;;;;;6.20;3.17;;;;;;;;;;5103115;28;19963;-62
2022/05/20 03:33:36;;;;;;;9.20;3.50;;;;;;;;;;5109275;28;20058;-60
2022/05/20 03:36:03;;;;;;;9.10;3.53;;;;;;;;;;5103920;28;20526;-61
2022/05/20 03:38:30;;;;;;;7.82;3.92;;;;;;;;;;5109369;28;20134;-61
2022/05/20 03:40:57;;;;;;;6.57;3.75;;;;;;;;;;5121257;27;20066;-61
2022/05/20 03:43:26;;;;;;;7.88;3.80;;;;;;;;;;5109187;28;20056;-61
2022/05/20 03:45:52;;;;;;;8.82;3.47;;;;;;;;;;5103915;28;20071;-61
2022/05/20 03:48:19;;;;;;;8.30;3.65;;;;;;;;;;5109252;28;20059;-61
2022/05/20 03:50:46;;;;;;;8.35;3.58;;;;;;;;;;5109066;28;20048;-61
2022/05/20 03:53:12;;;;;;;6.75;3.20;;;;;;;;;;5103268;28;20054;-61
2022/05/20 03:55:39;;;;;;;7.22;3.53;;;;;;;;;;5109473;28;20051;-61
2022/05/20 03:58:06;;;;;;;7.28;3.40;;;;;;;;;;5102698;28;20055;-61
2022/05/20 04:01:56;;;;;;;8.48;4.05;;;;;;;;;;5108928;28;20048;-61
2022/05/20 04:03:20;;;;;;;10.15;3.90;;;;;;;;;;5102668;28;20052;-61
2022/05/20 04:05:46;;;;;;;7.28;3.65;;;;;;;;;;5108241;28;20047;-61
2022/05/20 04:08:13;;;;;;;7.38;3.58;;;;;;;;;;5102866;28;20051;-62
2022/05/20 04:10:39;;;;;;;9.10;3.83;;;;;;;;;;5108270;28;20051;-61
2022/05/20 04:13:06;;;;;;;8.38;4.07;;;;;;;;;;5104553;28;20173;-61
2022/05/20 04:15:34;;;;;;;7.22;3.50;;;;;;;;;;5108977;28;20062;-61
2022/05/20 04:18:01;;;;;;;7.93;3.45;;;;;;;;;;5104442;28;20040;-61
2022/05/20 04:20:28;;;;;;;8.82;4.05;;;;;;;;;;5108853;28;20112;-62
2022/05/20 04:22:54;;;;;;;8.07;4.00;;;;;;;;;;5104886;28;20052;-62
2022/05/20 04:25:21;;;;;;;7.20;3.92;;;;;;;;;;5107755;28;20054;-62
2022/05/20 04:27:48;;;;;;;10.90;3.80;;;;;;;;;;5102326;28;20067;-61
2022/05/20 04:30:15;;;;;;;7.90;4.00;;;;;;;;;;5108448;28;20051;-61
2022/05/20 04:32:43;;;;;;;8.32;3.65;;;;;;;;;;5102529;28;20056;-60
2022/05/20 04:35:09;;;;;;;8.40;3.93;;;;;;;;;;5108133;28;20047;-62
2022/05/20 04:37:36;;;;;;;7.93;3.88;;;;;;;;;;5107800;28;20388;-61
2022/05/20 04:40:02;;;;;;;9.30;3.78;;;;;;;;;;5101889;28;20055;-62
2022/05/20 04:48:10;;;;;;;9.30;4.13;;;;;;;;;;5044290;28;20094;-61
2022/05/20 04:50:36;;;;;;;7.57;3.60;;;;;;;;;;5093083;28;20056;-61
2022/05/20 04:53:03;;;;;;;7.65;3.92;;;;;;;;;;5107554;28;20055;-61
2022/05/20 04:55:29;;;;;;;7.35;3.58;;;;;;;;;;5101875;28;20052;-61
2022/05/20 04:57:56;;;;;;;6.90;3.70;;;;;;;;;;5107285;28;20051;-61
2022/05/20 05:00:24;;;;;;;8.35;3.95;;;;;;;;;;5102179;28;20048;-60
2022/05/20 05:02:51;;;;;;;9.15;3.90;;;;;;;;;;5108268;28;20051;-60
2022/05/20 05:05:19;;;;;;;8.70;4.18;;;;;;;;;;5102843;28;20159;-61
2022/05/20 05:07:47;;;;;;;;;;;;;;;;;;5108448;28;20051;-62
2022/05/20 05:10:15;;;;;;;7.90;3.70;;;;;;;;;;5101556;28;20010;-61
2022/05/20 05:12:41;;;;;;;8.55;3.95;;;;;;;;;;5107236;28;20055;-60
2022/05/20 05:15:09;;;;;;;9.15;4.20;;;;;;;;;;5101685;28;20052;-62
2022/05/20 05:20:22;;;;;;;7.68;3.63;;;;;;;;;;5101707;28;20062;-60
2022/05/20 05:22:49;;;;;;;8.48;3.75;;;;;;;;;;5107473;28;20059;-61
2022/05/20 05:25:16;;;;;;;12.15;4.45;;;;;;;;;;5100949;28;20051;-61
2022/05/20 05:27:43;;;;;;;8.65;4.50;;;;;;;;;;5107473;28;20044;-61
2022/05/20 05:30:12;;;;;;;19.38;8.18;;;;;;;;;;5101619;28;20079;-61
2022/05/20 05:32:39;;;;;;;17.10;10.00;;;;;;;;;;5107271;28;20056;-61
2022/05/20 05:35:07;;;;;;;15.13;5.65;;;;;;;;;;5118814;27;20112;-62
2022/05/20 05:37:35;;;;;;;17.13;9.43;;;;;;;;;;5107052;28;20048;-61
2022/05/20 05:40:02;;;;;;;13.32;6.78;;;;;;;;;;5107336;28;20047;-61
2022/05/20 05:42:29;;;;;;;13.93;7.15;;;;;;;;;;5101945;28;20065;-62
2022/05/20 05:44:56;;;;;;;9.18;5.10;;;;;;;;;;5106525;28;20104;-61
2022/05/20 05:47:22;;;;;;;8.98;4.30;;;;;;;;;;5101468;28;20059;-62
2022/05/20 05:49:49;;;;;;;15.13;6.85;;;;;;;;;;5089773;28;20059;-61
2022/05/20 05:52:15;;;;;;;13.55;5.05;;;;;;;;;;5101345;28;20058;-61
2022/05/20 05:54:43;;;;;;;20.65;8.02;;;;;;;;;;5106489;28;20097;-62
2022/05/20 05:57:12;;;;;;;9.40;5.10;;;;;;;;;;5101017;28;20104;-62
2022/05/20 05:59:40;;;;;;;9.18;4.45;;;;;;;;;;5106311;28;20051;-62
2022/05/20 06:02:08;;;;;;;15.55;5.65;;;;;;;;;;5100647;28;20051;-63
2022/05/20 06:04:35;;;;;;;14.77;6.13;;;;;;;;;;5106251;28;20044;-61
2022/05/20 06:07:01;;;;;;;11.23;5.45;;;;;;;;;;5101161;28;20058;-61
2022/05/20 06:09:28;;;;;;;9.95;4.90;;;;;;;;;;5106678;28;20052;-62
2022/05/20 06:11:57;;;;;;;9.50;4.97;;;;;;;;;;5101394;28;20047;-61
2022/05/20 06:14:23;;;;;;;;;;;;;;;;;;5105680;28;20047;-62
2022/05/20 06:16:49;;;;;;;18.35;6.68;;;;;;;;;;5100260;28;19927;-62
2022/05/20 06:19:16;;;;;;;8.32;3.80;;;;;;;;;;5124094;28;20054;-61
2022/05/20 06:21:43;;;;;;;10.85;4.90;;;;;;;;;;5104844;28;20117;-61
2022/05/20 06:24:09;;;;;;;10.98;4.97;;;;;;;;;;5103954;28;20134;-61
2022/05/20 06:26:37;;;;;;;10.48;5.30;;;;;;;;;;5106600;28;20052;-61
2022/05/20 06:29:05;;;;;;;12.00;4.82;;;;;;;;;;5100980;28;20050;-61
2022/05/20 06:31:32;;;;;;;10.68;4.78;;;;;;;;;;5106830;28;20073;-62
2022/05/20 06:33:59;;;;;;;16.13;7.57;;;;;;;;;;5100211;28;20043;-62
2022/05/20 06:41:54;;;;;;;14.15;6.07;;;;;;;;;;5106767;28;20055;-61
2022/05/20 06:44:22;;;;;;;15.32;6.93;;;;;;;;;;5101583;28;20138;-62
2022/05/20 06:46:49;;;;;;;9.27;4.63;;;;;;;;;;5106200;28;20051;-62
2022/05/20 06:49:16;;;;;;;10.55;5.00;;;;;;;;;;5100453;28;20206;-61
2022/05/20 06:51:42;;;;;;;10.57;4.97;;;;;;;;;;5106335;28;20055;-61
2022/05/20 06:54:11;;;;;;;9.95;4.85;;;;;;;;;;5100190;28;20055;-61
2022/05/20 06:56:38;;;;;;;12.02;5.53;;;;;;;;;;5089144;28;20115;-61
2022/05/20 06:59:06;;;;;;;12.45;6.32;;;;;;;;;;5100356;28;20043;-61
2022/05/20 07:01:34;;;;;;;18.40;5.93;;;;;;;;;;5105853;28;20105;-62
2022/05/20 07:04:01;;;;;;;11.73;6.00;;;;;;;;;;5100898;28;20093;-61
2022/05/20 07:06:30;;;;;;;9.95;5.93;;;;;;;;;;5107187;28;20040;-60
2022/05/20 07:08:56;;;;;;;;;;;;;;;;;;5104601;28;20130;-61
2022/05/20 07:11:24;;;;;;;13.60;4.88;;;;;;;;;;5110962;28;19924;-62
2022/05/20 07:13:54;;;;;;;10.48;4.68;;;;;;;;;;5106150;28;20156;-60
2022/05/20 07:16:21;;;;;;;8.65;4.68;;;;;;;;;;5110627;28;20128;-61
2022/05/20 07:18:49;;;;;;;12.15;5.68;;;;;;;;;;5110539;28;20143;-62
2022/05/20 07:21:15;;;;;;;14.20;7.25;;;;;;;;;;5103683;28;20128;-61
2022/05/20 07:23:42;;;;;;;22.15;7.18;;;;;;;;;;5109596;28;20051;-61
2022/05/20 07:26:08;;;;;;;13.95;6.30;;;;;;;;;;5103988;28;20180;-61
2022/05/20 07:28:35;;;;;;;10.38;4.95;;;;;;;;;;5107007;28;20096;-61
2022/05/20 07:31:02;;;;;;;9.13;4.60;;;;;;;;;;5102175;28;20079;-61
2022/05/20 07:33:30;;;;;;;12.70;5.05;;;;;;;;;;5108794;28;20178;-61
2022/05/20 07:35:59;;;;;;;7.80;4.13;;;;;;;;;;5101773;28;20207;-61
2022/05/20 07:38:26;;;;;;;11.65;5.13;;;;;;;;;;5106308;28;20067;-61
2022/05/20 07:40:55;;;;;;;10.13;4.63;;;;;;;;;;5102425;28;20063;-62
2022/05/20 07:43:22;;;;;;;;;;;;;;;;;;5107293;28;20059;-61
2022/05/20 07:45:49;;;;;;;12.32;5.20;;;;;;;;;;5101882;28;19923;-61
2022/05/20 07:48:15;;;;;;;11.18;5.20;;;;;;;;;;5108157;28;20051;-61
2022/05/20 07:50:45;;;;;;;18.30;6.00;;;;;;;;;;5099588;28;20140;-62
2022/05/20 07:53:31;;;;;;;7.72;4.40;;;;;;;;;;5107283;28;20048;-62
2022/05/20 07:56:00;;;;;;;10.77;4.82;;;;;;;;;;5097809;28;20044;-61
2022/05/20 07:58:28;;;;;;;7.85;3.78;;;;;;;;;;5108505;28;20058;-61
2022/05/20 08:00:58;;;;;;;6.53;3.63;;;;;;;;;;5120402;27;20090;-61
2022/05/20 08:06:08;;;;;;;9.07;3.97;;;;;;;;;;5061331;28;20048;-61
2022/05/20 08:08:36;;;;;;;9.23;4.30;;;;;;;;;;5108096;28;20047;-61
2022/05/20 08:11:03;;;;;;;9.75;4.32;;;;;;;;;;5103497;28;20109;-61
2022/05/20 08:13:30;;;;;;;7.82;3.85;;;;;;;;;;5108080;28;20097;-62
2022/05/20 08:15:56;;;;;;;9.88;3.72;;;;;;;;;;5108824;28;20139;-61
2022/05/20 08:18:24;;;;;;;9.50;3.10;;;;;;;;;;5102765;28;20070;-62
2022/05/20 08:20:50;;;;;;;7.70;3.40;;;;;;;;;;5125604;27;20055;-61
2022/05/20 08:23:17;;;;;;;9.55;3.03;;;;;;;;;;5101849;28;20044;-61
2022/05/20 08:25:45;;;;;;;8.20;3.40;;;;;;;;;;5108624;28;20130;-61
2022/05/20 08:28:11;;;;;;;12.48;3.50;;;;;;;;;;5102521;28;20062;-61
2022/05/20 08:30:38;;;;;;;7.95;2.88;;;;;;;;;;5108778;28;20163;-61
2022/05/20 08:33:04;;;;;;;7.13;3.03;;;;;;;;;;5103947;28;20055;-61
2022/05/20 08:35:31;;;;;;;8.48;3.13;;;;;;;;;;5108980;28;20056;-62
2022/05/20 08:37:57;;;;;;;7.95;2.88;;;;;;;;;;5102947;28;20154;-62
2022/05/20 08:40:25;;;;;;;9.25;2.80;;;;;;;;;;5109067;28;20058;-61
2022/05/20 08:42:55;;;;;;;6.13;2.60;;;;;;;;;;5102848;28;20058;-61
2022/05/20 08:45:23;;;;;;;8.93;2.28;;;;;;;;;;5108644;28;20100;-61
2022/05/20 08:47:52;;;;;;;7.38;2.45;;;;;;;;;;5102375;28;20055;-62
2022/05/20 08:50:20;;;;;;;7.93;3.08;;;;;;;;;;5107682;28;20138;-63
2022/05/20 08:52:47;;;;;;;10.93;3.38;;;;;;;;;;5104150;28;20051;-63
2022/05/20 08:55:13;;;;;;;7.60;2.88;;;;;;;;;;5108110;28;20134;-65
2022/05/20 08:57:46;;;;;;;7.22;2.60;;;;;;;;;;5097791;28;20107;-64
2022/05/20 09:00:14;;;;;;;13.93;3.15;;;;;;;;;;5104927;28;20108;-64
2022/05/20 09:02:40;;;;;;;;;;;;;;;;;;5108162;28;20048;-62
2022/05/20 09:05:15;;;;;;;8.48;3.25;;;;;;;;;;5101894;28;19923;-63
2022/05/20 09:07:54;;;;;;;8.35;2.78;;;;;;;;;;5108170;28;20051;-65
2022/05/20 09:10:28;;;;;;;11.95;3.00;;;;;;;;;;5102659;27;20048;-64
2022/05/20 09:13:04;;;;;;;10.30;2.90;;;;;;;;;;5107350;28;20047;-65
2022/05/20 09:15:43;;;;;;;7.45;2.83;;;;;;;;;;5105292;27;20051;-65
2022/05/20 09:18:12;;;;;;;8.23;2.83;;;;;;;;;;5106452;28;20047;-64
2022/05/20 09:20:42;;;;;;;7.35;3.13;;;;;;;;;;5101648;28;20083;-64
2022/05/20 09:23:10;;;;;;;5.90;2.30;;;;;;;;;;5107682;28;20047;-64
2022/05/20 09:25:46;;;;;;;10.63;2.60;;;;;;;;;;5100164;28;20128;-64
2022/05/20 09:28:23;;;;;;;7.13;3.20;;;;;;;;;;5107283;28;20289;-64
2022/05/20 09:30:53;;;;;;;8.90;2.45;;;;;;;;;;5101614;28;20108;-64
2022/05/20 09:33:21;;;;;;;11.45;3.30;;;;;;;;;;5107076;28;20070;-62
2022/05/20 09:35:50;;;;;;;9.85;2.72;;;;;;;;;;5101176;28;20146;-62
2022/05/20 09:38:30;;;;;;;9.43;4.15;;;;;;;;;;5107274;28;20055;-62
2022/05/20 09:40:57;;;;;;;8.70;3.47;;;;;;;;;;5101808;28;20062;-64
2022/05/20 09:43:25;;;;;;;9.13;3.00;;;;;;;;;;5107626;28;20051;-62
2022/05/20 09:45:53;;;;;;;10.18;3.38;;;;;;;;;;5101819;28;20045;-62
2022/05/20 09:48:22;;;;;;;10.10;4.15;;;;;;;;;;5106872;28;20055;-62
2022/05/20 09:50:58;;;;;;;7.00;3.45;;;;;;;;;;5101480;28;20047;-61
2022/05/20 09:53:26;;;;;;;10.50;4.00;;;;;;;;;;5107131;28;20087;-61
2022/05/20 09:56:12;;;;;;;11.20;3.95;;;;;;;;;;5102082;28;20058;-62
2022/05/20 09:58:39;;;;;;;8.05;3.55;;;;;;;;;;5106051;28;20151;-62
2022/05/20 10:01:11;;;;;;;8.40;3.70;;;;;;;;;;5101023;28;20073;-62
2022/05/20 10:03:39;;;;;;;11.25;4.47;;;;;;;;;;5106490;28;20104;-62
2022/05/20 10:06:11;;;;;;;10.18;3.50;;;;;;;;;;5101233;28;20043;-62
2022/05/20 10:08:40;;;;;;;9.88;3.78;;;;;;;;;;5106280;28;20055;-62
2022/05/20 10:11:09;;;;;;;11.02;3.45;;;;;;;;;;5100289;28;20050;-62
2022/05/20 10:13:41;;;;;;;9.48;4.10;;;;;;;;;;5106408;28;20069;-61
2022/05/20 10:16:17;;;;;;;12.05;3.95;;;;;;;;;;5099959;28;20059;-62
2022/05/20 10:18:48;;;;;;;10.07;3.25;;;;;;;;;;5106780;28;20048;-62
2022/05/20 10:21:21;;;;;;;12.65;3.33;;;;;;;;;;5100738;28;20062;-62
2022/05/20 10:23:52;;;;;;;10.07;3.63;;;;;;;;;;5105967;28;20059;-62
2022/05/20 10:26:23;;;;;;;10.23;4.07;;;;;;;;;;5100573;28;20229;-61
2022/05/20 10:34:30;;;;;;;8.02;3.45;;;;;;;;;;5065838;28;20059;-63
2022/05/20 10:50:18;;;;;;;11.43;4.22;;;;;;;;;;5009296;28;20059;-62
2022/05/20 10:53:00;;;;;;;10.02;4.25;;;;;;;;;;5013513;28;20072;-62
2022/05/20 10:55:33;;;;;;;11.98;3.85;;;;;;;;;;5029523;28;20073;-62
2022/05/20 10:58:07;;;;;;;11.88;4.45;;;;;;;;;;5033969;28;20146;-62
2022/05/20 11:00:41;;;;;;;10.43;4.00;;;;;;;;;;5027710;28;20079;-62
2022/05/20 11:03:17;;;;;;;8.57;3.88;;;;;;;;;;5033411;28;20063;-62
2022/05/20 11:05:59;;;;;;;9.70;4.18;;;;;;;;;;5028324;28;20179;-62
2022/05/20 11:08:32;;;;;;;9.27;3.38;;;;;;;;;;5034714;28;20045;-62
2022/05/20 11:11:20;;;;;;;10.93;4.50;;;;;;;;;;5029548;28;20088;-62
2022/05/20 11:13:58;;;;;;;8.30;3.92;;;;;;;;;;5012390;28;20053;-62
2022/05/20 11:16:31;;;;;;;9.15;4.13;;;;;;;;;;5013138;28;20543;-63
2022/05/20 11:19:08;;;;;;;7.00;3.25;;;;;;;;;;5010408;28;20057;-63
2022/05/20 11:21:42;;;;;;;8.40;3.75;;;;;;;;;;5013006;28;20041;-62
2022/05/20 11:24:18;;;;;;;10.40;3.80;;;;;;;;;;5016108;28;20049;-62
2022/05/20 11:26:59;;;;;;;10.48;3.80;;;;;;;;;;5002712;28;20124;-63
2022/05/20 11:29:34;;;;;;;8.60;3.35;;;;;;;;;;4993195;28;20054;-64
2022/05/20 11:32:02;;;;;;;7.35;3.17;;;;;;;;;;5009500;28;20049;-62
2022/05/20 11:34:49;;;;;;;10.80;4.55;;;;;;;;;;5009063;28;20077;-63
2022/05/20 11:37:31;;;;;;;5.87;3.10;;;;;;;;;;4992221;28;20112;-63
2022/05/20 11:40:13;;;;;;;8.32;3.08;;;;;;;;;;4991432;28;20073;-63
2022/05/20 11:42:51;;;;;;;6.65;3.25;;;;;;;;;;5011468;28;20061;-63
2022/05/20 11:45:21;;;;;;;10.55;4.18;;;;;;;;;;5042938;28;20087;-63
2022/05/20 11:48:16;;;;;;;8.30;3.28;;;;;;;;;;5012256;28;20057;-63
2022/05/20 11:51:01;;;;;;;9.60;4.15;;;;;;;;;;5008784;28;20059;-64
2022/05/20 11:53:38;;;;;;;9.18;2.88;;;;;;;;;;5023329;28;20556;-63
2022/05/20 11:56:08;;;;;;;9.90;3.67;;;;;;;;;;5027684;28;20049;-63
2022/05/20 11:58:39;;;;;;;13.45;3.95;;;;;;;;;;5031778;28;20580;-63
2022/05/20 12:01:08;;;;;;;8.32;4.10;;;;;;;;;;5025702;28;20120;-63
2022/05/20 12:06:16;;;;;;;8.18;3.28;;;;;;;;;;5007945;28;20045;-63
2022/05/20 12:08:49;;;;;;;6.20;3.10;;;;;;;;;;5012481;28;20057;-63
2022/05/20 12:11:21;;;;;;;8.07;3.45;;;;;;;;;;5009765;28;20127;-62
2022/05/20 12:13:59;;;;;;;10.70;3.88;;;;;;;;;;5032130;28;20063;-63
2022/05/20 12:16:25;;;;;;;8.47;3.60;;;;;;;;;;5028583;28;20131;-62
2022/05/20 12:24:33;;;;;;;20.25;3.95;;;;;;;;;;5014548;28;20163;-62
2022/05/20 12:27:00;;;;;;;8.57;3.95;;;;;;;;;;5018244;28;20159;-64
2022/05/20 12:29:46;;;;;;;14.30;3.20;;;;;;;;;;5030971;28;20183;-63
2022/05/20 12:32:31;;;;;;;10.43;4.05;;;;;;;;;;5043709;28;20138;-63
2022/05/20 12:35:06;;;;;;;7.35;3.38;;;;;;;;;;5031488;28;20059;-64
2022/05/20 12:37:50;;;;;;;7.00;3.17;;;;;;;;;;5026544;28;20042;-62
2022/05/20 12:40:19;;;;;;;15.13;5.80;;;;;;;;;;5047620;28;20443;-62
2022/05/20 12:42:46;;;;;;;9.20;3.53;;;;;;;;;;5027594;28;20080;-63
2022/05/20 12:45:14;;;;;;;15.02;5.32;;;;;;;;;;5031154;28;20102;-63
2022/05/20 12:47:40;;;;;;;20.17;6.85;;;;;;;;;;5023110;28;20059;-62
2022/05/20 12:50:09;;;;;;;16.48;6.90;;;;;;;;;;5007879;28;20066;-62
2022/05/20 12:52:35;;;;;;;;;;;;;;;;;;5008955;28;20045;-62
2022/05/20 12:55:11;;;;;;;9.52;3.40;;;;;;;;;;5004584;28;19925;-62
2022/05/20 12:57:49;;;;;;;13.63;5.43;;;;;;;;;;5008459;28;20050;-61
2022/05/20 13:00:17;;;;;;;17.90;6.72;;;;;;;;;;5005157;28;20046;-61
2022/05/20 13:02:45;;;;;;;11.90;5.47;;;;;;;;;;5008114;28;20054;-61
2022/05/20 13:05:12;;;;;;;;;;;;;;;;;;5002409;28;20073;-60
2022/05/20 13:07:42;;;;;;;13.52;7.28;;;;;;;;;;5007957;28;19929;-61
2022/05/20 13:10:26;;;;;;;10.77;4.05;;;;;;;;;;5018379;28;20076;-61
2022/05/20 13:12:55;;;;;;;22.15;8.77;;;;;;;;;;5027762;28;20049;-60
2022/05/20 13:15:22;;;;;;;11.40;5.25;;;;;;;;;;5023442;28;20103;-61
2022/05/20 13:18:11;;;;;;;9.63;4.53;;;;;;;;;;5027086;28;20065;-62
2022/05/20 13:20:38;;;;;;;13.80;6.40;;;;;;;;;;5023736;28;20052;-61
2022/05/20 13:23:06;;;;;;;10.57;4.97;;;;;;;;;;5021937;28;20108;-61
2022/05/20 13:25:33;;;;;;;18.05;9.40;;;;;;;;;;5003886;28;20542;-62
2022/05/20 13:28:06;;;;;;;11.02;5.50;;;;;;;;;;5007172;28;20393;-61
2022/05/20 13:30:34;;;;;;;22.48;10.63;;;;;;;;;;5015652;28;20056;-62
2022/05/20 13:33:02;;;;;;;13.27;7.07;;;;;;;;;;5027316;28;20517;-61
2022/05/20 13:35:28;;;;;;;17.02;9.82;;;;;;;;;;5014136;28;20077;-61
2022/05/20 13:37:59;;;;;;;18.38;8.55;;;;;;;;;;5007670;28;20108;-61
2022/05/20 13:40:28;;;;;;;17.45;8.18;;;;;;;;;;5003500;28;20050;-61
2022/05/20 13:42:56;;;;;;;12.50;6.00;;;;;;;;;;5007209;28;20046;-61
2022/05/20 13:49:13;;;;;;;21.48;10.48;;;;;;;;;;5004160;28;20049;-61
2022/05/20 13:50:56;;;;;;;13.85;7.30;;;;;;;;;;4978997;28;20056;-62
2022/05/20 13:53:22;;;;;;;21.77;9.60;;;;;;;;;;5027170;28;20137;-61
2022/05/20 13:55:49;;;;;;;16.55;6.65;;;;;;;;;;5021460;28;20053;-61
2022/05/20 13:58:16;;;;;;;12.73;6.68;;;;;;;;;;5027992;28;20080;-61
2022/05/20 14:00:45;;;;;;;16.45;7.22;;;;;;;;;;5022546;28;20049;-60
2022/05/20 14:03:17;;;;;;;16.60;7.35;;;;;;;;;;5023377;28;20045;-60
2022/05/20 14:05:45;;;;;;;16.05;7.10;;;;;;;;;;5020746;28;20061;-60
2022/05/20 14:08:13;;;;;;;21.63;11.00;;;;;;;;;;5019659;28;20049;-61
2022/05/20 14:10:40;;;;;;;16.60;7.80;;;;;;;;;;5027258;28;20045;-60
2022/05/20 14:13:08;;;;;;;21.67;10.65;;;;;;;;;;5004424;28;20045;-60
2022/05/20 14:15:46;;;;;;;13.73;7.33;;;;;;;;;;5008938;28;20108;-64
2022/05/20 14:18:25;;;;;;;17.52;8.15;;;;;;;;;;5007870;28;20065;-63
2022/05/20 14:20:55;;;;;;;14.43;7.63;;;;;;;;;;5006735;28;20061;-64
2022/05/20 14:23:22;;;;;;;14.80;7.70;;;;;;;;;;5010746;28;20053;-64
2022/05/20 14:25:54;;;;;;;15.00;8.43;;;;;;;;;;5031028;28;20085;-64
2022/05/20 14:28:22;;;;;;;26.90;13.70;;;;;;;;;;5013886;28;20054;-63
2022/05/20 14:30:51;;;;;;;18.37;9.43;;;;;;;;;;5011387;28;20060;-66
2022/05/20 14:33:20;;;;;;;18.30;8.52;;;;;;;;;;5021813;28;20116;-66
2022/05/20 14:35:48;;;;;;;15.65;7.47;;;;;;;;;;5030600;28;20057;-65
2022/05/20 14:38:16;;;;;;;18.42;5.90;;;;;;;;;;5014461;28;20054;-64
2022/05/20 14:40:42;;;;;;;12.05;5.28;;;;;;;;;;5010720;28;20081;-66
2022/05/20 14:43:17;;;;;;;15.02;8.05;;;;;;;;;;5016126;28;20061;-66
2022/05/20 14:45:50;;;;;;;10.30;3.97;;;;;;;;;;5031934;28;20056;-64
2022/05/20 14:48:21;;;;;;;9.75;5.38;;;;;;;;;;5045520;28;20049;-66
2022/05/20 14:50:48;;;;;;;8.27;4.30;;;;;;;;;;5033652;28;20053;-65
2022/05/20 14:53:19;;;;;;;8.23;3.40;;;;;;;;;;5018643;28;20045;-66
2022/05/20 14:55:48;;;;;;;14.13;5.65;;;;;;;;;;5013704;28;20057;-65
2022/05/20 14:58:16;;;;;;;12.30;5.90;;;;;;;;;;5045274;28;20075;-67
2022/05/20 15:00:53;;;;;;;18.15;5.70;;;;;;;;;;5033225;28;20053;-65
2022/05/20 15:03:21;;;;;;;12.93;5.20;;;;;;;;;;5016814;28;20057;-65
2022/05/20 15:05:48;;;;;;;15.88;5.22;;;;;;;;;;5010705;28;20053;-64
2022/05/20 15:08:15;;;;;;;10.63;5.22;;;;;;;;;;4993143;28;20057;-65
2022/05/20 15:10:53;;;;;;;11.50;5.25;;;;;;;;;;5033884;28;20110;-64
2022/05/20 15:13:20;;;;;;;13.43;5.57;;;;;;;;;;5024591;28;20099;-65
2022/05/20 15:15:46;;;;;;;13.18;5.35;;;;;;;;;;5013518;28;20045;-64
2022/05/20 15:18:13;;;;;;;10.40;5.57;;;;;;;;;;5013376;28;20454;-65
2022/05/20 15:20:42;;;;;;;12.32;5.70;;;;;;;;;;5026157;28;20053;-64
2022/05/20 15:23:13;;;;;;;9.27;5.15;;;;;;;;;;5027223;28;20107;-65
2022/05/20 15:25:40;;;;;;;11.15;5.32;;;;;;;;;;5008819;28;20140;-67
2022/05/20 15:28:47;;;;;;;11.02;5.53;;;;;;;;;;5002685;28;20054;-66
2022/05/20 15:34:51;;;;;;;10.77;5.72;;;;;;;;;;5005834;28;20068;-65
2022/05/20 15:36:28;;;;;;;11.18;6.10;;;;;;;;;;5012030;28;20057;-66
2022/05/20 15:38:55;;;;;;;13.27;6.85;;;;;;;;;;5013181;28;20049;-65
2022/05/20 15:41:22;;;;;;;9.18;5.30;;;;;;;;;;5007573;28;20081;-66
2022/05/20 15:43:48;;;;;;;12.68;7.50;;;;;;;;;;5012879;28;20115;-65
2022/05/20 15:46:15;;;;;;;13.15;7.05;;;;;;;;;;5007647;28;20061;-65
2022/05/20 15:48:41;;;;;;;12.43;5.55;;;;;;;;;;5012780;28;20046;-63
2022/05/20 15:51:08;;;;;;;10.23;5.05;;;;;;;;;;5007218;28;20050;-65